createdAt,value
2022-11-18T00:02:59.809Z,95974.00
2022-11-18T00:07:01.139Z,95978.00
2022-11-18T00:11:09.186Z,95981.00
2022-11-18T00:15:10.322Z,95964.00
2022-11-18T00:19:11.621Z,95975.00
2022-11-18T00:23:12.739Z,95973.00
2022-11-18T00:27:13.828Z,95976.00
2022-11-18T00:31:14.946Z,95975.00
2022-11-18T00:35:16.056Z,95979.00
2022-11-18T00:39:19.358Z,95964.00
2022-11-18T00:43:20.908Z,95966.00
2022-11-18T00:47:22.012Z,95966.00
2022-11-18T00:51:23.013Z,95973.00
2022-11-18T00:55:23.977Z,95977.00
2022-11-18T00:59:25.267Z,95988.00
2022-11-18T01:03:27.777Z,95981.00
2022-11-18T01:07:28.900Z,95990.00
2022-11-18T01:11:48.488Z,95989.00
2022-11-18T01:15:53.308Z,95994.00
2022-11-18T01:19:54.292Z,95991.00
2022-11-18T01:23:55.314Z,96004.00
2022-11-18T01:27:56.573Z,96014.00
2022-11-18T01:36:00.963Z,96012.00
2022-11-18T01:40:03.393Z,96008.00
2022-11-18T01:44:07.701Z,96012.00
2022-11-18T01:48:12.510Z,96024.00
2022-11-18T01:52:14.480Z,96022.00
2022-11-18T01:56:22.141Z,96022.00
2022-11-18T02:00:23.214Z,96011.00
2022-11-18T02:04:25.125Z,96016.00
2022-11-18T02:08:28.148Z,96038.00
2022-11-18T02:12:30.036Z,96027.00
2022-11-18T02:16:44.241Z,96023.00
2022-11-18T02:20:47.479Z,96027.00
2022-11-18T02:24:55.373Z,96024.00
2022-11-18T02:29:06.299Z,96026.00
2022-11-18T02:33:14.242Z,96027.00
2022-11-18T02:37:19.392Z,96035.00
2022-11-18T02:41:24.242Z,96036.00
2022-11-18T02:45:26.679Z,96033.00
2022-11-18T02:49:34.659Z,96034.00
2022-11-18T02:53:39.493Z,96031.00
2022-11-18T02:57:43.292Z,96030.00
2022-11-18T03:01:44.604Z,96029.00
2022-11-18T03:05:58.862Z,96021.00
2022-11-18T03:10:01.080Z,96022.00
2022-11-18T03:14:09.065Z,96033.00
2022-11-18T03:18:28.385Z,96046.00
2022-11-18T03:22:36.145Z,96042.00
2022-11-18T03:26:40.899Z,96044.00
2022-11-18T03:30:48.504Z,96052.00
2022-11-18T03:34:53.447Z,96056.00
2022-11-18T03:38:58.432Z,96062.00
2022-11-18T03:43:09.102Z,96066.00
2022-11-18T03:47:13.935Z,96069.00
2022-11-18T03:51:18.924Z,96072.00
2022-11-18T03:55:23.762Z,96078.00
2022-11-18T03:59:37.540Z,96081.00
2022-11-18T04:03:38.923Z,96091.00
2022-11-18T04:07:59.532Z,96097.00
2022-11-18T04:12:04.374Z,96083.00
2022-11-18T04:16:08.632Z,96105.00
2022-11-18T04:20:13.597Z,96104.00
2022-11-18T04:24:15.250Z,96104.00
2022-11-18T04:28:16.259Z,96099.00
2022-11-18T04:32:17.388Z,96113.00
2022-11-18T04:36:19.544Z,96111.00
2022-11-18T04:40:20.597Z,96113.00
2022-11-18T04:44:33.041Z,96117.00
2022-11-18T04:48:34.083Z,96126.00
2022-11-18T04:52:35.183Z,96132.00
2022-11-18T04:56:36.729Z,96128.00
2022-11-18T05:00:37.771Z,96128.00
2022-11-18T05:04:38.956Z,96134.00
2022-11-18T05:08:40.392Z,96140.00
2022-11-18T05:12:50.643Z,96143.00
2022-11-18T05:16:52.357Z,96145.00
2022-11-18T05:20:53.355Z,96145.00
2022-11-18T05:24:54.393Z,96152.00
2022-11-18T05:29:00.965Z,96155.00
2022-11-18T05:33:02.442Z,96165.00
2022-11-18T05:37:05.763Z,96167.00
2022-11-18T05:41:08.041Z,96162.00
2022-11-18T05:45:09.275Z,96174.00
2022-11-18T05:49:10.545Z,96187.00
2022-11-18T05:53:11.769Z,96181.00
2022-11-18T05:57:12.768Z,96184.00
2022-11-18T06:01:26.532Z,96179.00
2022-11-18T06:05:27.504Z,96190.00
2022-11-18T06:09:31.668Z,96194.00
2022-11-18T06:13:39.867Z,96200.00
2022-11-18T06:17:44.714Z,96210.00
2022-11-18T06:21:46.615Z,96229.00
2022-11-18T06:25:48.317Z,96215.00
2022-11-18T06:29:49.276Z,96221.00
2022-11-18T06:33:50.414Z,96238.00
2022-11-18T06:37:51.533Z,96239.00
2022-11-18T06:41:53.821Z,96238.00
2022-11-18T06:46:18.182Z,96240.00
2022-11-18T06:50:19.152Z,96250.00
2022-11-18T06:54:20.573Z,96254.00
2022-11-18T06:58:21.683Z,96260.00
2022-11-18T07:02:22.660Z,96264.00
2022-11-18T07:06:26.889Z,96266.00
2022-11-18T07:10:27.944Z,96272.00
2022-11-18T07:14:30.016Z,96285.00
2022-11-18T07:18:32.679Z,96288.00
2022-11-18T07:22:33.645Z,96297.00
2022-11-18T07:26:35.354Z,96299.00
2022-11-18T07:30:36.341Z,96311.00
2022-11-18T07:34:37.360Z,96313.00
2022-11-18T07:38:38.892Z,96318.00
2022-11-18T07:42:42.891Z,96325.00
2022-11-18T07:46:44.062Z,96335.00
2022-11-18T07:50:47.296Z,96337.00
2022-11-18T07:54:48.252Z,96343.00
2022-11-18T07:58:53.829Z,96342.00
2022-11-18T08:02:54.843Z,96344.00
2022-11-18T08:06:56.058Z,96351.00
2022-11-18T08:10:58.454Z,96350.00
2022-11-18T08:14:59.482Z,96362.00
2022-11-18T08:19:00.651Z,96363.00
2022-11-18T08:23:01.891Z,96363.00
2022-11-18T08:27:02.884Z,96363.00
2022-11-18T08:31:19.940Z,96371.00
2022-11-18T08:35:21.244Z,96371.00
2022-11-18T08:39:22.373Z,96380.00
2022-11-18T08:43:23.412Z,96366.00
2022-11-18T08:47:24.545Z,96377.00
2022-11-18T08:51:25.836Z,96378.00
2022-11-18T08:55:26.829Z,96380.00
2022-11-18T08:59:28.086Z,96383.00
2022-11-18T09:03:31.948Z,96392.00
2022-11-18T09:07:32.297Z,96403.00
2022-11-18T09:11:34.241Z,96397.00
2022-11-18T09:15:35.313Z,96405.00
2022-11-18T09:19:52.319Z,96411.00
2022-11-18T09:23:40.053Z,96417.00
2022-11-18T09:27:41.089Z,96416.00
2022-11-18T09:31:42.100Z,96421.00
2022-11-18T09:35:43.899Z,96423.00
2022-11-18T09:39:44.884Z,96430.00
2022-11-18T09:44:16.942Z,96439.00
2022-11-18T09:48:23.371Z,96439.00
2022-11-18T09:52:37.602Z,96431.00
2022-11-18T09:56:40.788Z,96439.00
2022-11-18T10:00:44.221Z,96450.00
2022-11-18T10:04:45.343Z,96441.00
2022-11-18T10:09:05.631Z,96444.00
2022-11-18T10:13:30.587Z,96440.00
2022-11-18T10:17:50.846Z,96444.00
2022-11-18T10:22:01.663Z,96454.00
2022-11-18T10:26:02.767Z,96459.00
2022-11-18T10:30:16.728Z,96461.00
2022-11-18T10:34:19.203Z,96467.00
2022-11-18T10:38:21.124Z,96471.00
2022-11-18T10:42:45.410Z,96474.00
2022-11-18T10:46:46.654Z,96476.00
2022-11-18T10:50:55.286Z,96483.00
2022-11-18T10:55:21.057Z,96475.00
2022-11-18T10:59:31.996Z,96491.00
2022-11-18T11:03:36.796Z,96475.00
2022-11-18T11:07:38.184Z,96480.00
2022-11-18T11:12:01.645Z,96487.00
2022-11-18T11:16:05.845Z,96484.00
2022-11-18T11:20:22.770Z,96468.00
2022-11-18T11:24:26.444Z,96485.00
2022-11-18T11:28:34.651Z,96494.00
2022-11-18T11:32:39.537Z,96470.00
2022-11-18T11:37:05.830Z,96497.00
2022-11-18T11:41:31.931Z,96499.00
2022-11-18T11:45:48.996Z,96501.00
2022-11-18T11:50:02.999Z,96506.00
2022-11-18T11:54:25.806Z,96506.00
2022-11-18T11:58:36.786Z,96515.00
2022-11-18T12:02:51.089Z,96506.00
2022-11-18T12:06:54.453Z,96505.00
2022-11-18T12:11:17.557Z,96502.00
2022-11-18T12:15:34.435Z,96504.00
2022-11-18T12:19:38.435Z,96509.00
2022-11-18T12:23:39.577Z,96495.00
2022-11-18T12:27:47.552Z,96524.00
2022-11-18T12:31:57.124Z,96526.00
2022-11-18T12:35:58.601Z,96487.00
2022-11-18T12:40:00.997Z,96517.00
2022-11-18T12:44:05.223Z,96514.00
2022-11-18T12:48:29.372Z,96529.00
2022-11-18T12:52:34.377Z,96521.00
2022-11-18T12:56:36.878Z,96521.00
2022-11-18T13:00:40.144Z,96507.00
2022-11-18T13:04:45.844Z,96528.00
2022-11-18T13:08:47.949Z,96547.00
2022-11-18T13:12:50.228Z,96546.00
2022-11-18T13:17:09.772Z,96550.00
2022-11-18T13:21:29.615Z,96532.00
2022-11-18T13:25:30.810Z,96559.00
2022-11-18T13:29:41.453Z,96554.00
2022-11-18T13:33:42.945Z,96557.00
2022-11-18T13:37:51.038Z,96546.00
2022-11-18T13:42:08.120Z,96560.00
2022-11-18T13:46:12.971Z,96552.00
2022-11-18T13:50:32.589Z,96550.00
2022-11-18T13:54:33.919Z,96555.00
2022-11-18T13:59:10.249Z,96555.00
2022-11-18T14:02:45.819Z,96562.00
2022-11-18T14:06:47.450Z,96555.00
2022-11-18T14:10:48.601Z,96560.00
2022-11-18T14:14:49.947Z,96557.00
2022-11-18T14:18:51.819Z,96557.00
2022-11-18T14:22:59.853Z,96556.00
2022-11-18T14:27:21.155Z,96567.00
2022-11-18T14:31:31.844Z,96565.00
2022-11-18T14:35:35.091Z,96579.00
2022-11-18T14:39:37.656Z,96568.00
2022-11-18T14:43:39.228Z,96578.00
2022-11-18T14:47:40.748Z,96571.00
2022-11-18T14:51:42.169Z,96575.00
2022-11-18T14:55:45.025Z,96573.00
2022-11-18T14:59:47.048Z,96590.00
2022-11-18T15:03:48.317Z,96591.00
2022-11-18T15:07:49.907Z,96586.00
2022-11-18T15:11:51.084Z,96280.00
2022-11-18T15:15:52.133Z,96591.00
2022-11-18T15:19:53.735Z,96581.00
2022-11-18T15:23:55.218Z,96592.00
2022-11-18T15:27:56.889Z,96587.00
2022-11-18T15:31:59.378Z,96591.00
2022-11-18T15:36:00.570Z,96584.00
2022-11-18T15:40:01.616Z,96600.00
2022-11-18T15:44:03.057Z,96606.00
2022-11-18T15:48:04.634Z,96528.00
2022-11-18T15:52:08.688Z,96620.00
2022-11-18T15:56:29.333Z,96612.00
2022-11-18T16:00:30.507Z,96624.00
2022-11-18T16:04:31.658Z,96618.00
2022-11-18T16:08:32.723Z,96621.00
2022-11-18T16:12:48.953Z,96626.00
2022-11-18T16:16:53.412Z,96630.00
2022-11-18T16:20:58.514Z,96628.00
2022-11-18T16:24:59.619Z,96633.00
2022-11-18T16:29:00.847Z,96638.00
2022-11-18T16:33:02.052Z,96640.00
2022-11-18T16:37:04.440Z,96662.00
2022-11-18T16:41:07.641Z,96657.00
2022-11-18T16:45:09.864Z,96657.00
2022-11-18T16:49:12.967Z,96656.00
2022-11-18T16:53:14.347Z,96661.00
2022-11-18T16:57:15.457Z,96674.00
2022-11-18T17:01:20.938Z,96684.00
2022-11-18T17:05:19.474Z,96685.00
2022-11-18T17:09:22.922Z,96693.00
2022-11-18T17:13:24.070Z,96701.00
2022-11-18T17:17:25.119Z,96463.00
2022-11-18T17:21:27.986Z,96696.00
2022-11-18T17:25:29.414Z,96697.00
2022-11-18T17:29:32.371Z,96687.00
2022-11-18T17:33:34.416Z,96690.00
2022-11-18T17:37:35.811Z,96693.00
2022-11-18T17:41:55.393Z,96690.00
2022-11-18T17:45:58.276Z,96685.00
2022-11-18T17:49:59.448Z,96687.00
2022-11-18T17:54:00.681Z,96681.00
2022-11-18T17:58:02.041Z,96687.00
2022-11-18T18:02:03.282Z,96696.00
2022-11-18T18:06:07.109Z,96706.00
2022-11-18T18:10:08.807Z,96704.00
2022-11-18T18:14:12.847Z,96712.00
2022-11-18T18:18:14.200Z,96702.00
2022-11-18T18:22:15.348Z,96716.00
2022-11-18T18:26:16.809Z,96719.00
2022-11-18T18:30:18.070Z,96709.00
2022-11-18T18:34:19.787Z,96713.00
2022-11-18T18:38:21.091Z,96723.00
2022-11-18T18:42:22.424Z,96722.00
2022-11-18T18:46:28.199Z,96714.00
2022-11-18T18:50:32.067Z,96717.00
2022-11-18T18:54:33.585Z,96718.00
2022-11-18T18:58:35.436Z,96721.00
2022-11-18T19:02:36.761Z,96721.00
2022-11-18T19:10:42.990Z,96727.00
2022-11-18T19:14:44.639Z,96736.00
2022-11-18T19:18:46.032Z,96735.00
2022-11-18T19:22:47.109Z,96750.00
2022-11-18T19:26:48.292Z,96748.00
2022-11-18T19:30:49.384Z,96735.00
2022-11-18T19:34:50.467Z,96744.00
2022-11-18T19:38:51.795Z,96752.00
2022-11-18T19:42:53.064Z,96770.00
2022-11-18T19:46:54.309Z,96763.00
2022-11-18T19:51:08.480Z,96768.00
2022-11-18T19:55:09.799Z,96773.00
2022-11-18T19:59:12.074Z,96778.00
2022-11-18T20:03:13.273Z,96780.00
2022-11-18T20:07:14.637Z,96770.00
2022-11-18T20:11:17.510Z,96783.00
2022-11-18T20:15:18.837Z,96776.00
2022-11-18T20:19:20.466Z,96775.00
2022-11-18T20:23:22.044Z,96776.00
2022-11-18T20:27:23.192Z,96779.00
2022-11-18T20:31:25.776Z,96785.00
2022-11-18T20:35:27.083Z,96820.00
2022-11-18T20:39:28.593Z,96794.00
2022-11-18T20:43:29.856Z,96797.00
2022-11-18T20:47:31.037Z,96822.00
2022-11-18T20:51:32.155Z,96793.00
2022-11-18T20:55:38.102Z,96804.00
2022-11-18T20:59:39.589Z,96797.00
2022-11-18T21:03:41.759Z,96793.00
2022-11-18T21:07:45.702Z,96806.00
2022-11-18T21:11:46.963Z,96818.00
2022-11-18T21:15:48.080Z,96816.00
2022-11-18T21:19:49.616Z,96817.00
2022-11-18T21:23:58.431Z,96829.00
2022-11-18T21:27:59.909Z,96821.00
2022-11-18T21:32:01.376Z,96830.00
2022-11-18T21:36:02.672Z,96829.00
2022-11-18T21:40:05.059Z,96838.00
2022-11-18T21:44:12.347Z,96752.00
2022-11-18T21:48:13.583Z,96842.00
2022-11-18T21:52:14.845Z,96832.00
2022-11-18T21:56:20.064Z,96833.00
2022-11-18T22:00:21.161Z,96832.00
2022-11-18T22:04:40.805Z,96840.00
2022-11-18T22:08:42.199Z,96830.00
2022-11-18T22:12:46.119Z,96834.00
2022-11-18T22:16:49.125Z,96846.00
2022-11-18T22:20:50.408Z,96842.00
2022-11-18T22:24:51.523Z,96835.00
2022-11-18T22:28:54.436Z,96843.00
2022-11-18T22:32:55.782Z,96838.00
2022-11-18T22:36:57.025Z,96842.00
2022-11-18T22:41:05.981Z,96835.00
2022-11-18T22:45:08.234Z,96870.00
2022-11-18T22:49:10.893Z,96865.00
2022-11-18T22:53:14.683Z,96864.00
2022-11-18T22:57:15.954Z,96883.00
2022-11-18T23:01:20.517Z,96880.00
2022-11-18T23:05:21.734Z,96886.00
2022-11-18T23:09:22.913Z,96890.00
2022-11-18T23:13:42.402Z,96899.00
2022-11-18T23:17:43.536Z,96911.00
2022-11-18T23:21:45.531Z,96907.00
2022-11-18T23:25:46.817Z,96914.00
2022-11-18T23:29:47.797Z,96916.00
2022-11-18T23:33:49.540Z,96914.00
2022-11-18T23:37:50.571Z,96916.00
2022-11-18T23:41:51.548Z,96908.00
2022-11-18T23:45:53.479Z,96897.00
2022-11-18T23:49:54.436Z,96891.00
2022-11-18T23:53:56.765Z,96894.00
2022-11-18T23:57:57.735Z,96907.00
